Time;durP1;ratioP1;P1;durP2;ratioP2;P2;SDS_P1;SDS_P2;PMS_P1;PMS_P2;Temp;Humidity;BMP_temperature;BMP_pressure;BME280_temperature;BME280_humidity;BME280_pressure;Samples;Min_cycle;Max_cycle;Signal;HPM_P1;HPM_P2
2021/12/28 00:00:07;;;;;;;17.40;12.20;;;7.90;99.90;;;;;;4954967;29;20039;-80
2021/12/28 00:02:39;;;;;;;17.33;15.75;;;8.00;99.90;;;;;;4960275;28;20035;-81
2021/12/28 00:05:06;;;;;;;15.88;14.30;;;8.00;99.90;;;;;;4954750;29;20039;-79
2021/12/28 00:07:33;;;;;;;21.33;13.98;;;8.00;99.90;;;;;;4954486;29;20035;-80
2021/12/28 00:09:59;;;;;;;17.40;15.57;;;8.00;99.90;;;;;;4937582;29;20035;-80
2021/12/28 00:12:28;;;;;;;14.32;13.05;;;8.10;99.90;;;;;;4954024;29;20051;-80
2021/12/28 00:15:07;;;;;;;14.23;12.73;;;8.10;99.90;;;;;;4954533;29;20051;-80
2021/12/28 00:20:19;;;;;;;13.13;11.80;;;8.10;99.90;;;;;;4958236;29;20031;-77
2021/12/28 00:22:45;;;;;;;15.68;11.73;;;8.10;99.90;;;;;;4957356;29;20036;-79
2021/12/28 00:25:11;;;;;;;15.10;11.05;;;8.20;99.90;;;;;;4940859;29;20039;-79
2021/12/28 00:27:38;;;;;;;13.38;11.68;;;8.20;99.90;;;;;;4957794;29;20046;-80
2021/12/28 00:30:05;;;;;;;19.88;10.80;;;8.20;99.90;;;;;;4959104;28;20038;-79
2021/12/28 00:32:32;;;;;;;25.35;22.98;;;8.20;99.90;;;;;;4959312;29;20046;-80
2021/12/28 00:34:58;;;;;;;20.25;13.80;;;8.20;99.90;;;;;;4959549;29;20048;-80
2021/12/28 00:37:24;;;;;;;15.52;13.35;;;8.20;99.90;;;;;;4960458;29;20031;-78
2021/12/28 00:39:50;;;;;;;22.60;17.58;;;8.30;99.90;;;;;;4961511;28;20035;-80
2021/12/28 00:42:16;;;;;;;15.02;12.30;;;8.30;99.90;;;;;;4961103;29;20031;-80
2021/12/28 00:44:43;;;;;;;17.63;15.32;;;8.30;99.90;;;;;;4961313;29;20062;-80
2021/12/28 00:47:09;;;;;;;18.35;12.63;;;8.30;99.90;;;;;;4961113;29;20040;-80
2021/12/28 00:49:35;;;;;;;26.65;19.63;;;8.40;99.90;;;;;;4942838;29;20051;-80
2021/12/28 00:52:01;;;;;;;16.75;11.32;;;8.40;99.90;;;;;;4962222;29;20039;-80
2021/12/28 00:54:28;;;;;;;19.13;9.25;;;8.40;99.90;;;;;;4961009;29;20035;-80
2021/12/28 00:56:54;;;;;;;14.18;12.20;;;8.50;99.90;;;;;;4961715;29;20038;-80
2021/12/28 00:59:20;;;;;;;12.60;6.95;;;8.40;99.90;;;;;;4961576;29;20035;-80
2021/12/28 01:01:47;;;;;;;11.57;6.60;;;8.40;99.90;;;;;;4961874;29;20042;-80
2021/12/28 01:04:14;;;;;;;9.88;6.10;;;8.50;99.90;;;;;;4962593;29;20035;-82
2021/12/28 01:06:41;;;;;;;12.48;6.47;;;8.40;99.90;;;;;;4962973;29;20406;-81
2021/12/28 01:09:07;;;;;;;6.75;5.20;;;8.60;99.90;;;;;;4965744;29;20051;-80
2021/12/28 01:11:33;;;;;;;16.15;6.78;;;8.70;99.90;;;;;;4975073;28;20025;-80
2021/12/28 01:13:59;;;;;;;13.20;5.97;;;8.80;99.90;;;;;;4976310;29;20040;-80
2021/12/28 01:16:26;;;;;;;13.18;5.20;;;8.80;99.90;;;;;;4977315;29;20035;-79
2021/12/28 01:18:52;;;;;;;10.43;5.32;;;8.80;99.90;;;;;;4965737;29;20047;-79
2021/12/28 01:21:19;;;;;;;7.68;4.80;;;8.80;99.90;;;;;;4963018;29;20046;-80
2021/12/28 01:23:45;;;;;;;66.10;59.25;;;8.80;99.90;;;;;;4961708;29;20031;-79
2021/12/28 01:26:11;;;;;;;22.80;15.38;;;8.80;99.90;;;;;;4961307;29;20039;-80
2021/12/28 01:28:38;;;;;;;67.53;60.42;;;8.80;99.90;;;;;;4959067;29;20062;-80
2021/12/28 01:31:04;;;;;;;17.50;7.50;;;8.80;99.90;;;;;;4959787;29;20038;-80
2021/12/28 01:33:34;;;;;;;38.00;25.27;;;8.70;99.90;;;;;;4965288;29;20043;-79
2021/12/28 01:36:01;;;;;;;11.57;6.47;;;8.70;99.90;;;;;;4960616;29;20054;-79
2021/12/28 01:38:28;;;;;;;6.35;4.93;;;8.60;99.90;;;;;;4962022;29;20043;-80
2021/12/28 01:40:54;;;;;;;16.35;5.47;;;8.60;99.90;;;;;;4960841;28;20035;-80
2021/12/28 01:43:24;;;;;;;6.88;5.13;;;8.50;99.90;;;;;;4961048;29;20409;-80
2021/12/28 01:45:56;;;;;;;6.82;4.88;;;8.50;99.90;;;;;;4960982;29;20047;-80
2021/12/28 01:48:29;;;;;;;8.77;4.93;;;8.40;99.90;;;;;;4961252;29;20393;-79
2021/12/28 01:50:58;;;;;;;10.70;5.35;;;8.40;99.90;;;;;;4961664;29;20049;-80
2021/12/28 01:53:25;;;;;;;6.88;5.28;;;8.40;99.90;;;;;;4960868;29;20042;-79
2021/12/28 01:55:55;;;;;;;5.85;4.65;;;8.30;99.90;;;;;;4960355;29;20531;-81
2021/12/28 01:58:23;;;;;;;5.00;3.70;;;8.20;99.90;;;;;;4960026;29;20047;-79
2021/12/28 02:00:53;;;;;;;6.97;4.53;;;8.20;99.90;;;;;;4960854;29;20379;-81
2021/12/28 02:03:21;;;;;;;5.45;4.22;;;8.10;99.90;;;;;;4960405;29;20039;-81
2021/12/28 02:05:48;;;;;;;7.10;4.70;;;8.00;99.90;;;;;;4959667;29;20047;-80
2021/12/28 02:08:15;;;;;;;6.88;4.25;;;7.90;99.90;;;;;;4961076;29;20392;-79
2021/12/28 02:10:45;;;;;;;8.70;4.82;;;7.80;99.90;;;;;;4960184;29;20046;-80
2021/12/28 02:13:12;;;;;;;7.10;4.88;;;7.70;99.90;;;;;;4958212;29;20035;-79
2021/12/28 02:15:38;;;;;;;14.13;4.50;;;7.60;99.90;;;;;;4956285;29;20047;-78
2021/12/28 02:18:09;;;;;;;16.05;5.00;;;7.50;99.90;;;;;;4939903;29;20038;-78
2021/12/28 02:20:36;;;;;;;7.68;5.18;;;7.50;99.90;;;;;;4959349;29;20026;-80
2021/12/28 02:23:03;;;;;;;6.05;4.88;;;7.50;99.90;;;;;;4957896;29;20027;-78
2021/12/28 02:25:31;;;;;;;8.10;5.45;;;7.50;99.90;;;;;;4924746;29;20043;-80
2021/12/28 02:27:58;;;;;;;10.60;5.50;;;7.40;99.90;;;;;;4964851;29;20038;-80
2021/12/28 02:30:25;;;;;;;7.30;5.15;;;7.40;99.90;;;;;;4955429;29;20035;-79
2021/12/28 02:32:52;;;;;;;12.75;4.60;;;7.40;99.90;;;;;;4958019;29;20058;-80
2021/12/28 02:35:21;;;;;;;8.45;5.03;;;7.50;99.90;;;;;;4959078;29;20031;-80
2021/12/28 02:37:48;;;;;;;10.75;5.22;;;7.60;99.90;;;;;;4956011;29;20051;-80
2021/12/28 02:40:18;;;;;;;9.73;4.72;;;7.70;99.90;;;;;;4957739;29;20488;-80
2021/12/28 02:42:45;;;;;;;7.80;4.93;;;7.70;99.90;;;;;;4958530;29;20338;-78
2021/12/28 02:45:20;;;;;;;72.15;65.13;;;7.70;99.90;;;;;;4955618;29;20035;-79
2021/12/28 02:47:46;;;;;;;103.55;90.72;;;7.70;99.90;;;;;;4962554;29;20105;-79
2021/12/28 02:50:20;;;;;;;67.20;56.53;;;7.70;99.90;;;;;;4955163;29;20047;-80
2021/12/28 02:52:46;;;;;;;16.45;9.00;;;7.60;99.90;;;;;;4955837;28;20354;-80
2021/12/28 02:55:19;;;;;;;42.65;38.50;;;7.60;99.90;;;;;;4958200;29;20058;-81
2021/12/28 02:57:49;;;;;;;31.05;27.67;;;7.60;99.90;;;;;;4957728;29;20591;-80
2021/12/28 03:00:35;;;;;;;25.52;13.95;;;7.70;99.90;;;;;;4957819;29;20039;-81
2021/12/28 03:03:23;;;;;;;16.25;9.15;;;7.70;99.90;;;;;;4957881;29;20028;-81
2021/12/28 03:05:52;;;;;;;7.00;5.50;;;7.80;99.90;;;;;;4956961;29;20050;-80
2021/12/28 03:08:20;;;;;;;19.30;10.20;;;7.90;99.90;;;;;;4958615;29;20050;-80
2021/12/28 03:10:48;;;;;;;10.00;6.68;;;7.90;99.90;;;;;;4964842;29;20039;-78
2021/12/28 03:13:25;;;;;;;11.95;7.15;;;7.90;99.90;;;;;;4966175;29;20039;-79
2021/12/28 03:15:52;;;;;;;8.32;3.25;;;7.90;99.90;;;;;;4967917;29;20050;-80
2021/12/28 03:18:18;;;;;;;19.10;10.25;;;8.00;99.90;;;;;;4971495;29;20039;-79
2021/12/28 03:20:45;;;;;;;10.15;4.40;;;8.10;99.90;;;;;;4958938;29;20425;-80
2021/12/28 03:23:17;;;;;;;41.15;37.35;;;8.10;99.90;;;;;;4942977;29;20039;-80
2021/12/28 03:25:44;;;;;;;71.75;64.47;;;8.10;99.90;;;;;;4960032;29;20039;-79
2021/12/28 03:28:20;;;;;;;23.70;16.50;;;8.20;99.90;;;;;;4958767;29;20035;-80
2021/12/28 03:30:47;;;;;;;11.68;4.38;;;8.10;99.90;;;;;;4956296;29;20035;-80
2021/12/28 03:33:14;;;;;;;96.97;86.40;;;8.10;99.90;;;;;;4961905;29;20031;-80
2021/12/28 03:35:40;;;;;;;42.75;32.40;;;8.20;99.90;;;;;;4954148;29;20469;-79
2021/12/28 03:38:07;;;;;;;95.78;71.07;;;8.20;99.90;;;;;;4956909;29;20038;-80
2021/12/28 03:40:33;;;;;;;22.75;13.68;;;8.20;99.90;;;;;;4957339;29;20042;-79
2021/12/28 03:43:00;;;;;;;14.15;8.88;;;8.20;99.90;;;;;;4956431;29;20039;-80
2021/12/28 03:45:26;;;;;;;80.15;55.22;;;8.20;99.90;;;;;;4957369;29;20042;-79
2021/12/28 03:47:52;;;;;;;21.35;13.00;;;8.20;99.90;;;;;;4956659;29;20035;-79
2021/12/28 03:50:25;;;;;;;63.70;50.17;;;8.20;99.90;;;;;;4956139;29;20055;-79
2021/12/28 03:52:55;;;;;;;123.88;98.13;;;8.20;99.90;;;;;;4956046;29;20031;-78
2021/12/28 03:55:23;;;;;;;25.55;20.90;;;8.20;99.90;;;;;;4944185;29;20054;-79
2021/12/28 03:57:50;;;;;;;51.75;34.80;;;8.30;99.90;;;;;;4954003;29;20035;-79
2021/12/28 04:00:18;;;;;;;76.40;56.33;;;8.30;99.90;;;;;;4956993;29;20031;-80
2021/12/28 04:02:45;;;;;;;33.38;23.55;;;8.40;99.90;;;;;;4964283;29;20032;-78
2021/12/28 04:05:12;;;;;;;42.08;28.70;;;8.50;99.90;;;;;;4971560;28;20065;-80
2021/12/28 04:07:39;;;;;;;29.70;20.50;;;8.50;99.90;;;;;;4966070;29;20034;-79
2021/12/28 04:10:09;;;;;;;10.95;9.30;;;8.60;99.90;;;;;;4952623;29;20035;-80
2021/12/28 04:12:35;;;;;;;8.02;4.38;;;8.60;99.90;;;;;;4960900;29;20035;-80
2021/12/28 04:15:02;;;;;;;21.55;14.88;;;8.60;99.90;;;;;;4958472;29;20038;-79
2021/12/28 04:17:31;;;;;;;18.65;11.82;;;8.60;99.90;;;;;;4962422;29;20035;-79
2021/12/28 04:19:58;;;;;;;14.43;4.72;;;8.60;99.90;;;;;;4955929;29;20039;-78
2021/12/28 04:22:24;;;;;;;12.27;6.65;;;8.50;99.90;;;;;;4957507;29;20031;-79
2021/12/28 04:24:50;;;;;;;11.70;4.97;;;8.40;99.90;;;;;;4956855;29;20043;-79
2021/12/28 04:27:16;;;;;;;15.57;7.30;;;8.40;99.90;;;;;;4957197;29;20066;-79
2021/12/28 04:29:43;;;;;;;13.48;8.82;;;8.40;99.90;;;;;;4939267;29;20039;-77
2021/12/28 04:32:09;;;;;;;18.35;9.65;;;8.30;99.90;;;;;;4958262;29;20035;-78
2021/12/28 04:34:35;;;;;;;11.38;3.33;;;8.30;99.90;;;;;;4955315;29;20477;-78
2021/12/28 04:37:02;;;;;;;14.90;12.27;;;8.30;99.90;;;;;;4956599;29;20038;-79
2021/12/28 04:39:28;;;;;;;7.95;3.25;;;8.30;99.90;;;;;;4961536;29;20038;-79
2021/12/28 04:41:54;;;;;;;6.32;3.58;;;8.30;99.90;;;;;;4954495;29;20042;-80
2021/12/28 04:44:24;;;;;;;7.95;5.28;;;8.30;99.90;;;;;;4956668;29;20404;-79
2021/12/28 04:46:54;;;;;;;6.43;3.10;;;8.20;99.90;;;;;;4956126;29;20058;-80
2021/12/28 04:49:25;;;;;;;6.40;2.67;;;8.20;99.90;;;;;;4957528;29;20685;-79
2021/12/28 04:51:51;;;;;;;5.30;2.20;;;8.20;99.90;;;;;;4955922;29;20046;-80
2021/12/28 04:54:19;;;;;;;4.25;2.38;;;8.20;99.90;;;;;;4956637;29;20042;-79
2021/12/28 04:56:46;;;;;;;6.63;2.53;;;8.10;99.90;;;;;;4953900;29;20484;-79
2021/12/28 04:59:16;;;;;;;10.93;2.28;;;8.10;99.90;;;;;;4963613;29;20039;-80
2021/12/28 05:01:43;;;;;;;5.03;2.58;;;8.10;99.90;;;;;;4936496;29;20039;-80
2021/12/28 05:04:09;;;;;;;6.40;2.40;;;8.10;99.90;;;;;;4956488;29;20058;-80
2021/12/28 05:06:36;;;;;;;6.55;2.70;;;8.10;99.90;;;;;;4957209;29;20054;-79
2021/12/28 05:09:11;;;;;;;4.07;2.38;;;8.00;99.90;;;;;;4957453;29;20043;-80
2021/12/28 05:11:38;;;;;;;5.03;2.60;;;8.00;99.90;;;;;;4957142;29;20365;-80
2021/12/28 05:14:05;;;;;;;5.88;2.63;;;8.00;99.90;;;;;;4956150;29;20047;-80
2021/12/28 05:16:33;;;;;;;7.05;3.00;;;7.90;99.90;;;;;;4958654;28;20042;-81
2021/12/28 05:19:02;;;;;;;5.30;2.47;;;7.90;99.90;;;;;;4957047;29;20043;-80
2021/12/28 05:21:29;;;;;;;9.90;3.42;;;7.90;99.90;;;;;;4965689;29;20035;-80
2021/12/28 05:23:55;;;;;;;9.32;3.42;;;7.90;99.90;;;;;;4957766;29;20035;-79
2021/12/28 05:26:22;;;;;;;9.10;3.50;;;7.80;99.90;;;;;;4959464;29;20035;-78
2021/12/28 05:28:48;;;;;;;9.13;2.70;;;7.80;99.90;;;;;;4950014;29;20040;-80
2021/12/28 05:31:14;;;;;;;5.63;2.10;;;7.80;99.90;;;;;;4940013;29;20050;-80
2021/12/28 05:33:41;;;;;;;6.97;3.25;;;7.80;99.90;;;;;;4923928;29;20035;-79
2021/12/28 05:36:08;;;;;;;15.98;3.13;;;7.80;99.90;;;;;;4940855;29;20381;-78
2021/12/28 05:38:34;;;;;;;4.80;2.80;;;7.80;99.90;;;;;;4939196;29;20044;-78
2021/12/28 05:41:01;;;;;;;7.55;2.97;;;7.80;99.90;;;;;;4938032;29;20043;-79
2021/12/28 05:43:27;;;;;;;16.33;3.08;;;7.80;99.90;;;;;;4946099;29;20031;-79
2021/12/28 05:45:53;;;;;;;7.68;3.53;;;7.80;99.90;;;;;;4937281;29;20047;-79
2021/12/28 05:48:19;;;;;;;8.85;3.78;;;7.80;99.90;;;;;;4937930;29;20052;-79
2021/12/28 05:50:45;;;;;;;9.88;3.47;;;7.80;99.90;;;;;;4939548;29;20052;-80
2021/12/28 05:53:12;;;;;;;6.80;3.03;;;7.90;99.90;;;;;;4922919;29;20046;-80
2021/12/28 05:55:38;;;;;;;11.85;3.28;;;7.80;99.90;;;;;;4939781;29;20032;-79
2021/12/28 05:58:04;;;;;;;14.00;3.15;;;7.80;99.90;;;;;;4940697;29;20032;-80
2021/12/28 06:00:30;;;;;;;11.57;3.10;;;7.80;99.90;;;;;;4939258;29;20489;-80
2021/12/28 06:02:58;;;;;;;8.48;3.30;;;7.90;99.90;;;;;;4940120;29;20469;-79
2021/12/28 06:05:25;;;;;;;11.35;3.67;;;7.80;99.90;;;;;;4948151;29;20028;-80
2021/12/28 06:07:51;;;;;;;9.73;3.00;;;7.90;99.90;;;;;;4941569;29;20051;-79
2021/12/28 06:10:18;;;;;;;11.77;3.13;;;7.90;99.90;;;;;;4941971;29;20032;-80
2021/12/28 06:12:45;;;;;;;11.93;2.65;;;7.90;99.90;;;;;;4940743;29;20039;-79
2021/12/28 06:15:12;;;;;;;13.15;3.28;;;7.90;99.90;;;;;;4940408;29;20421;-80
2021/12/28 06:17:39;;;;;;;11.40;2.90;;;7.90;99.90;;;;;;4940154;29;20039;-80
2021/12/28 06:20:06;;;;;;;10.55;2.72;;;7.90;99.90;;;;;;4941164;29;20040;-80
2021/12/28 06:22:32;;;;;;;8.35;2.90;;;7.90;99.90;;;;;;4939693;29;20034;-80
2021/12/28 06:24:58;;;;;;;9.68;3.47;;;7.90;99.90;;;;;;4936491;29;20038;-81
2021/12/28 06:27:24;;;;;;;6.63;3.13;;;8.00;99.90;;;;;;4942077;29;20048;-81
2021/12/28 06:29:51;;;;;;;15.60;3.60;;;8.00;99.90;;;;;;4936751;29;20067;-81
2021/12/28 06:32:17;;;;;;;4.97;2.67;;;8.00;99.90;;;;;;4946501;29;20043;-81
2021/12/28 06:34:43;;;;;;;7.70;3.55;;;8.00;99.90;;;;;;4956975;29;20031;-80
2021/12/28 06:37:10;;;;;;;4.32;2.75;;;8.00;99.90;;;;;;4929193;29;20034;-81
2021/12/28 06:39:36;;;;;;;9.25;3.53;;;8.10;99.90;;;;;;4938468;29;20035;-79
2021/12/28 06:42:03;;;;;;;8.55;3.30;;;8.10;99.90;;;;;;4936917;29;20039;-80
2021/12/28 06:44:29;;;;;;;5.47;3.40;;;8.00;99.90;;;;;;4938011;29;20032;-79
2021/12/28 06:46:55;;;;;;;7.63;2.70;;;8.10;99.90;;;;;;4936019;29;20055;-80
2021/12/28 06:49:21;;;;;;;6.88;2.60;;;8.00;99.90;;;;;;4944454;29;20051;-78
2021/12/28 06:51:48;;;;;;;5.82;3.47;;;8.10;99.90;;;;;;4936239;29;20043;-73
2021/12/28 06:54:14;;;;;;;16.55;10.20;;;8.10;99.90;;;;;;4938635;29;20445;-77
2021/12/28 06:56:41;;;;;;;6.65;2.67;;;8.10;99.90;;;;;;4938027;29;20048;-76
2021/12/28 06:59:07;;;;;;;51.45;47.65;;;8.10;99.90;;;;;;4938332;29;20032;-78
2021/12/28 07:01:33;;;;;;;9.82;8.35;;;8.10;99.90;;;;;;4938296;29;20040;-76
2021/12/28 07:04:00;;;;;;;8.98;3.03;;;8.10;99.90;;;;;;4937965;29;20035;-77
2021/12/28 07:06:26;;;;;;;5.88;3.08;;;8.10;99.90;;;;;;4937543;29;20051;-78
2021/12/28 07:08:53;;;;;;;9.25;6.80;;;8.10;99.90;;;;;;4935534;29;20040;-78
2021/12/28 07:11:19;;;;;;;11.95;8.65;;;8.10;99.90;;;;;;4942098;29;20390;-77
2021/12/28 07:13:45;;;;;;;4.15;3.03;;;8.10;99.90;;;;;;4935465;29;20027;-77
2021/12/28 07:16:12;;;;;;;15.48;13.68;;;8.10;99.90;;;;;;4937740;29;20050;-78
2021/12/28 07:18:38;;;;;;;7.65;3.47;;;8.10;99.90;;;;;;4947074;29;20043;-77
2021/12/28 07:21:05;;;;;;;5.00;2.60;;;8.10;99.90;;;;;;4949326;29;20043;-78
2021/12/28 07:23:31;;;;;;;9.40;2.30;;;8.10;99.90;;;;;;4961273;29;20143;-78
2021/12/28 07:25:58;;;;;;;7.88;3.70;;;8.10;99.90;;;;;;4959938;29;20035;-76
2021/12/28 07:28:25;;;;;;;7.18;2.33;;;8.10;99.90;;;;;;4951267;29;20381;-77
2021/12/28 07:30:53;;;;;;;6.45;4.97;;;8.10;99.90;;;;;;4946027;29;20043;-76
2021/12/28 07:33:21;;;;;;;7.93;2.92;;;8.10;99.90;;;;;;4945908;29;20035;-77
2021/12/28 07:35:47;;;;;;;5.63;3.28;;;8.10;99.90;;;;;;4940135;29;20036;-76
2021/12/28 07:38:14;;;;;;;6.72;2.85;;;8.10;99.90;;;;;;4939800;29;20055;-77
2021/12/28 07:40:42;;;;;;;4.72;2.40;;;8.10;99.90;;;;;;4938885;29;20044;-79
2021/12/28 07:43:08;;;;;;;8.52;5.57;;;8.10;99.90;;;;;;4922480;29;20043;-80
2021/12/28 07:45:34;;;;;;;7.32;4.15;;;8.10;99.90;;;;;;4936288;29;20054;-79
2021/12/28 07:48:01;;;;;;;4.05;2.25;;;8.10;99.90;;;;;;4934890;29;20075;-80
2021/12/28 07:50:30;;;;;;;11.90;6.30;;;8.00;99.90;;;;;;4935548;29;20153;-78
2021/12/28 07:52:56;;;;;;;7.60;4.53;;;8.00;99.90;;;;;;4934693;29;20042;-76
2021/12/28 07:55:22;;;;;;;4.47;1.80;;;8.00;99.90;;;;;;4940898;29;20381;-78
2021/12/28 07:57:49;;;;;;;5.03;2.33;;;8.00;99.90;;;;;;4934410;29;20394;-76
2021/12/28 08:00:17;;;;;;;3.03;2.15;;;8.00;99.90;;;;;;4918207;29;20044;-78
2021/12/28 08:02:45;;;;;;;8.77;5.75;;;8.00;99.90;;;;;;4934849;29;20043;-76
2021/12/28 08:05:14;;;;;;;7.32;2.03;;;8.00;99.90;;;;;;4937923;29;20027;-80
2021/12/28 08:07:41;;;;;;;3.25;1.95;;;8.00;99.90;;;;;;4937621;29;20048;-81
2021/12/28 08:10:09;;;;;;;6.70;2.33;;;8.00;99.90;;;;;;4933506;29;20228;-81
2021/12/28 08:12:35;;;;;;;12.32;2.78;;;8.00;99.90;;;;;;4935471;29;20453;-83
2021/12/28 08:15:03;;;;;;;9.93;2.63;;;8.00;99.90;;;;;;4935012;29;20027;-82
2021/12/28 08:17:30;;;;;;;8.95;2.95;;;8.00;99.90;;;;;;4936189;29;20032;-81
2021/12/28 08:19:57;;;;;;;4.53;2.28;;;8.00;99.90;;;;;;4935692;29;20047;-81
2021/12/28 08:22:24;;;;;;;7.55;3.10;;;8.00;99.90;;;;;;4940685;29;20048;-81
2021/12/28 08:24:50;;;;;;;3.33;1.85;;;8.00;99.90;;;;;;4937942;29;20385;-81
2021/12/28 08:27:16;;;;;;;3.80;2.38;;;8.00;99.90;;;;;;4936656;29;20040;-82
2021/12/28 08:29:42;;;;;;;12.32;3.35;;;8.10;99.90;;;;;;4936343;29;20039;-82
2021/12/28 08:32:09;;;;;;;7.88;2.92;;;8.00;99.90;;;;;;4944745;29;20032;-81
2021/12/28 08:34:35;;;;;;;4.80;2.47;;;8.10;99.90;;;;;;4946033;29;20032;-81
2021/12/28 08:37:01;;;;;;;9.07;3.33;;;8.10;99.90;;;;;;4917144;29;20047;-81
2021/12/28 08:39:27;;;;;;;5.30;1.90;;;8.10;99.90;;;;;;4917915;29;20040;-82
2021/12/28 08:41:54;;;;;;;6.00;2.22;;;8.10;99.90;;;;;;4917669;29;20462;-82
2021/12/28 08:44:20;;;;;;;5.32;2.55;;;8.10;99.90;;;;;;4935181;29;20039;-83
2021/12/28 08:46:46;;;;;;;6.75;3.38;;;8.20;99.90;;;;;;4934508;29;20059;-82
2021/12/28 08:49:12;;;;;;;14.02;3.75;;;8.20;99.90;;;;;;4935042;29;20405;-82
2021/12/28 08:51:39;;;;;;;5.28;2.40;;;8.20;99.90;;;;;;4921390;29;20366;-84
2021/12/28 08:54:05;;;;;;;7.63;2.50;;;8.20;99.90;;;;;;4921476;29;20040;-83
2021/12/28 08:56:31;;;;;;;12.10;7.28;;;8.30;99.90;;;;;;4937210;29;20051;-84
2021/12/28 08:58:58;;;;;;;13.60;12.30;;;8.30;99.90;;;;;;4937851;29;20042;-82
2021/12/28 09:01:24;;;;;;;76.45;64.55;;;8.40;99.90;;;;;;4938778;29;20058;-83
2021/12/28 09:03:52;;;;;;;14.18;9.80;;;8.40;99.90;;;;;;4937858;29;20039;-82
2021/12/28 09:06:19;;;;;;;5.95;5.05;;;8.50;99.90;;;;;;4938414;29;20040;-82
2021/12/28 09:08:46;;;;;;;9.07;8.13;;;8.50;99.90;;;;;;4938294;29;20031;-82
2021/12/28 09:11:12;;;;;;;13.25;12.18;;;8.60;99.90;;;;;;4920800;29;20043;-81
2021/12/28 09:13:39;;;;;;;10.40;9.52;;;8.70;99.90;;;;;;4940666;29;20042;-82
2021/12/28 09:16:05;;;;;;;4.72;3.47;;;8.70;99.90;;;;;;4921069;29;20035;-82
2021/12/28 09:18:32;;;;;;;10.45;9.50;;;8.80;99.90;;;;;;4937926;29;20036;-81
2021/12/28 09:20:58;;;;;;;7.55;6.82;;;8.80;99.90;;;;;;4937691;29;20036;-82
2021/12/28 09:23:25;;;;;;;6.40;4.70;;;8.90;99.90;;;;;;4939194;29;20032;-82
2021/12/28 09:25:51;;;;;;;8.90;8.13;;;8.90;99.90;;;;;;4938137;29;20420;-82
2021/12/28 09:28:17;;;;;;;9.32;8.52;;;9.00;99.90;;;;;;4937859;29;20342;-83
2021/12/28 09:30:44;;;;;;;4.00;3.17;;;9.00;99.90;;;;;;4936971;29;20048;-82
2021/12/28 09:33:11;;;;;;;2.30;1.77;;;9.00;99.90;;;;;;4937567;29;20028;-82
2021/12/28 09:35:37;;;;;;;4.03;3.72;;;9.00;99.90;;;;;;4938225;29;20043;-83
2021/12/28 09:38:04;;;;;;;2.30;2.10;;;9.00;99.90;;;;;;4920740;29;20059;-83
2021/12/28 09:40:34;;;;;;;3.53;2.13;;;9.10;99.90;;;;;;4937657;29;20046;-82
2021/12/28 09:43:02;;;;;;;5.57;4.00;;;9.10;99.90;;;;;;4937003;29;20032;-83
2021/12/28 09:45:29;;;;;;;13.30;9.25;;;9.00;99.90;;;;;;4937612;29;20497;-83
2021/12/28 09:47:55;;;;;;;11.60;5.47;;;9.10;99.90;;;;;;4936717;29;20051;-82
2021/12/28 09:50:22;;;;;;;17.67;12.13;;;9.10;99.90;;;;;;4937799;29;20047;-82
2021/12/28 09:52:50;;;;;;;17.13;12.65;;;9.20;99.90;;;;;;4938675;29;20040;-82
2021/12/28 09:55:19;;;;;;;11.65;2.65;;;9.20;99.90;;;;;;4937980;29;20374;-82
2021/12/28 09:57:46;;;;;;;1.67;1.58;;;9.30;99.90;;;;;;4937463;29;20040;-83
2021/12/28 10:00:14;;;;;;;1.80;1.23;;;9.30;99.90;;;;;;4937200;29;20058;-82
2021/12/28 10:02:40;;;;;;;1.00;0.55;;;9.30;99.90;;;;;;4937577;29;20183;-81
2021/12/28 10:05:10;;;;;;;2.67;1.48;;;9.30;99.90;;;;;;4936711;29;20031;-82
2021/12/28 10:07:42;;;;;;;1.02;0.70;;;9.30;99.90;;;;;;4922509;29;20043;-81
2021/12/28 10:10:09;;;;;;;3.40;1.60;;;9.40;99.90;;;;;;4937190;29;20051;-81
2021/12/28 10:12:44;;;;;;;1.35;1.00;;;9.40;99.90;;;;;;4937016;29;20032;-80
2021/12/28 10:15:15;;;;;;;1.13;0.80;;;9.40;99.90;;;;;;4935283;29;20040;-81
2021/12/28 10:17:43;;;;;;;;;;;9.40;99.90;;;;;;4938168;29;20054;-80
2021/12/28 10:20:15;;;;;;;0.82;0.80;;;9.40;99.90;;;;;;4936484;29;19911;-81
2021/12/28 10:22:49;;;;;;;3.08;1.33;;;9.40;99.90;;;;;;4937057;29;20039;-81
2021/12/28 10:25:19;;;;;;;1.77;0.80;;;9.50;99.90;;;;;;4936106;29;20032;-81
2021/12/28 10:27:59;;;;;;;0.50;0.43;;;9.50;99.90;;;;;;4936814;29;20047;-81
2021/12/28 10:30:36;;;;;;;2.42;0.73;;;9.60;99.90;;;;;;4920126;29;20043;-82
2021/12/28 10:33:06;;;;;;;0.93;0.63;;;9.70;99.90;;;;;;4936074;29;20031;-81
2021/12/28 10:35:35;;;;;;;1.30;0.95;;;9.80;99.90;;;;;;4936576;29;20385;-81
2021/12/28 10:38:05;;;;;;;1.73;1.00;;;9.90;99.90;;;;;;4936181;29;20042;-82
2021/12/28 10:40:35;;;;;;;1.17;0.90;;;10.00;99.90;;;;;;4936772;29;20038;-82
2021/12/28 10:43:09;;;;;;;1.00;0.80;;;9.90;99.90;;;;;;4936226;29;20042;-82
2021/12/28 10:45:51;;;;;;;1.10;0.82;;;10.00;99.90;;;;;;4935119;29;20043;-82
2021/12/28 10:48:23;;;;;;;2.97;2.13;;;10.00;99.90;;;;;;4936056;29;20044;-82
2021/12/28 10:51:00;;;;;;;4.78;3.05;;;10.10;99.90;;;;;;4937979;29;20047;-81
2021/12/28 10:53:36;;;;;;;8.30;7.38;;;10.00;99.90;;;;;;4938795;29;20036;-82
2021/12/28 10:56:06;;;;;;;6.05;4.57;;;10.00;99.90;;;;;;4938767;29;20036;-81
2021/12/28 10:58:51;;;;;;;10.02;9.13;;;10.10;99.90;;;;;;4939269;29;20389;-81
2021/12/28 11:01:24;;;;;;;34.33;31.33;;;10.10;99.90;;;;;;4922340;29;20062;-81
2021/12/28 11:04:04;;;;;;;11.63;10.70;;;10.10;99.90;;;;;;4938171;29;20039;-81
2021/12/28 11:06:33;;;;;;;11.02;10.25;;;10.20;99.90;;;;;;4936285;29;20497;-81
2021/12/28 11:09:05;;;;;;;8.23;7.18;;;10.20;99.90;;;;;;4935228;29;20035;-81
2021/12/28 11:11:31;;;;;;;4.38;2.90;;;10.30;99.90;;;;;;4936155;29;20040;-81
2021/12/28 11:14:00;;;;;;;2.33;1.88;;;10.30;99.90;;;;;;4918266;29;20034;-81
2021/12/28 11:16:28;;;;;;;1.85;1.40;;;10.40;99.90;;;;;;4936350;29;20032;-81
2021/12/28 11:18:57;;;;;;;1.80;1.20;;;10.50;99.90;;;;;;4919053;29;20031;-82
2021/12/28 11:21:34;;;;;;;3.03;1.55;;;10.50;99.90;;;;;;4934433;29;20044;-80
2021/12/28 11:24:09;;;;;;;1.98;1.50;;;10.50;99.90;;;;;;4918116;29;20416;-81
2021/12/28 11:26:41;;;;;;;1.35;0.82;;;10.60;99.90;;;;;;4937415;29;20043;-82
2021/12/28 11:29:17;;;;;;;1.67;1.38;;;10.70;99.90;;;;;;4935422;29;20031;-82
2021/12/28 11:31:48;;;;;;;1.75;0.80;;;10.80;99.90;;;;;;4935607;29;20039;-83
2021/12/28 11:34:29;;;;;;;;;;;10.80;99.90;;;;;;4918714;29;20128;-81
2021/12/28 11:36:58;;;;;;;2.30;0.73;;;10.70;99.90;;;;;;4937388;29;19911;-82
2021/12/28 11:39:55;;;;;;;2.05;1.10;;;10.70;99.90;;;;;;4935359;29;20042;-80
2021/12/28 11:42:23;;;;;;;2.90;0.80;;;10.60;99.90;;;;;;4916362;29;20489;-81
2021/12/28 11:44:50;;;;;;;1.02;0.90;;;10.60;99.90;;;;;;4918551;29;20043;-82
2021/12/28 11:47:21;;;;;;;2.05;1.15;;;10.50;99.90;;;;;;4934908;29;20274;-81
2021/12/28 11:49:49;;;;;;;1.45;1.20;;;10.50;99.90;;;;;;4915394;29;20070;-81
2021/12/28 11:52:21;;;;;;;1.88;1.35;;;10.50;99.90;;;;;;4901513;29;20040;-81
2021/12/28 11:54:51;;;;;;;1.15;0.90;;;10.50;99.90;;;;;;4916717;29;20043;-82
2021/12/28 11:57:20;;;;;;;1.50;1.00;;;10.50;99.90;;;;;;4902066;29;20125;-82
2021/12/28 11:59:56;;;;;;;0.95;0.60;;;10.50;99.90;;;;;;4930517;29;20040;-80
2021/12/28 12:02:37;;;;;;;1.20;0.80;;;10.50;99.90;;;;;;4915897;29;20393;-81
2021/12/28 12:05:13;;;;;;;0.85;0.70;;;10.60;99.90;;;;;;4915905;29;20040;-81
2021/12/28 12:07:40;;;;;;;3.03;0.98;;;10.60;99.90;;;;;;4916262;29;20493;-79
2021/12/28 12:10:10;;;;;;;4.55;0.98;;;10.70;99.90;;;;;;4915574;29;20032;-81
2021/12/28 12:12:54;;;;;;;0.70;0.67;;;10.70;99.90;;;;;;4916089;29;20036;-81
2021/12/28 12:15:23;;;;;;;1.08;0.85;;;10.70;99.90;;;;;;4898887;29;20044;-82
2021/12/28 12:17:50;;;;;;;1.23;0.88;;;10.80;99.90;;;;;;4914740;29;20055;-81
2021/12/28 12:20:19;;;;;;;1.67;1.25;;;10.80;99.90;;;;;;4917180;29;20039;-82
2021/12/28 12:22:49;;;;;;;1.17;1.08;;;10.80;99.90;;;;;;4916300;29;20401;-81
2021/12/28 12:25:19;;;;;;;0.93;0.70;;;10.90;99.90;;;;;;4898620;29;20482;-82
2021/12/28 12:27:50;;;;;;;10.00;8.52;;;10.90;99.90;;;;;;4919681;29;20299;-82
2021/12/28 12:30:20;;;;;;;4.85;3.38;;;10.90;99.90;;;;;;4919305;29;20024;-81
2021/12/28 12:33:05;;;;;;;3.40;2.47;;;10.90;99.90;;;;;;4923615;29;20039;-81
2021/12/28 12:35:34;;;;;;;21.05;18.65;;;10.80;99.90;;;;;;4918297;29;20031;-80
2021/12/28 12:38:14;;;;;;;25.55;22.42;;;10.90;99.90;;;;;;4902457;29;20067;-81
2021/12/28 12:41:06;;;;;;;25.15;22.60;;;10.90;99.90;;;;;;4902798;29;20043;-82
2021/12/28 12:43:35;;;;;;;10.23;7.38;;;10.90;99.90;;;;;;4902418;29;20375;-81
2021/12/28 12:46:40;;;;;;;17.58;15.98;;;10.90;99.90;;;;;;4922399;29;20032;-82
2021/12/28 12:49:18;;;;;;;6.65;6.05;;;10.90;99.90;;;;;;4919725;29;20064;-81
2021/12/28 12:51:52;;;;;;;11.73;4.70;;;10.90;99.90;;;;;;4938550;29;20036;-81
2021/12/28 12:54:23;;;;;;;5.90;5.30;;;10.80;99.90;;;;;;4937845;29;20036;-82
2021/12/28 12:56:54;;;;;;;3.95;3.60;;;10.80;99.90;;;;;;4938484;29;20032;-82
2021/12/28 12:59:24;;;;;;;4.60;4.20;;;10.80;99.90;;;;;;4937736;29;20512;-81